sensor_id;sensor_type;location;lat;lon;timestamp;P1;durP1;ratioP1;P2;durP2;ratioP2
62997;SDS011;55949;52.590;7.330;2022-07-18T00:00:33;6.78;;;3.88;;
62997;SDS011;55949;52.590;7.330;2022-07-18T00:01:33;5.60;;;3.42;;
62997;SDS011;55949;52.590;7.330;2022-07-18T00:02:35;7.45;;;4.03;;
62997;SDS011;55949;52.590;7.330;2022-07-18T00:03:36;7.40;;;4.43;;
62997;SDS011;55949;52.590;7.330;2022-07-18T00:04:37;7.07;;;4.50;;
62997;SDS011;55949;52.590;7.330;2022-07-18T00:05:37;8.15;;;4.15;;
62997;SDS011;55949;52.590;7.330;2022-07-18T00:06:38;7.55;;;4.25;;
62997;SDS011;55949;52.590;7.330;2022-07-18T00:07:39;5.60;;;3.75;;
62997;SDS011;55949;52.590;7.330;2022-07-18T00:08:39;7.75;;;3.83;;
62997;SDS011;55949;52.590;7.330;2022-07-18T00:09:40;7.47;;;3.70;;
62997;SDS011;55949;52.590;7.330;2022-07-18T00:10:42;6.57;;;3.97;;
62997;SDS011;55949;52.590;7.330;2022-07-18T00:11:42;10.07;;;3.58;;
62997;SDS011;55949;52.590;7.330;2022-07-18T00:12:44;8.77;;;3.83;;
62997;SDS011;55949;52.590;7.330;2022-07-18T00:13:44;6.10;;;3.38;;
62997;SDS011;55949;52.590;7.330;2022-07-18T00:14:45;6.55;;;4.03;;
62997;SDS011;55949;52.590;7.330;2022-07-18T00:15:46;5.93;;;3.63;;
62997;SDS011;55949;52.590;7.330;2022-07-18T00:16:47;6.50;;;4.03;;
62997;SDS011;55949;52.590;7.330;2022-07-18T00:17:49;6.72;;;4.55;;
62997;SDS011;55949;52.590;7.330;2022-07-18T00:18:50;10.60;;;4.75;;
62997;SDS011;55949;52.590;7.330;2022-07-18T00:19:50;7.82;;;4.40;;
62997;SDS011;55949;52.590;7.330;2022-07-18T00:20:52;7.15;;;4.30;;
62997;SDS011;55949;52.590;7.330;2022-07-18T00:21:53;7.88;;;4.53;;
62997;SDS011;55949;52.590;7.330;2022-07-18T00:22:54;6.47;;;4.53;;
62997;SDS011;55949;52.590;7.330;2022-07-18T00:23:54;10.75;;;5.03;;
62997;SDS011;55949;52.590;7.330;2022-07-18T00:24:55;8.55;;;4.60;;
62997;SDS011;55949;52.590;7.330;2022-07-18T00:25:56;8.27;;;4.65;;
62997;SDS011;55949;52.590;7.330;2022-07-18T00:26:57;9.15;;;4.43;;
62997;SDS011;55949;52.590;7.330;2022-07-18T00:27:58;9.35;;;5.00;;
62997;SDS011;55949;52.590;7.330;2022-07-18T00:28:59;9.75;;;4.85;;
62997;SDS011;55949;52.590;7.330;2022-07-18T00:30:01;7.50;;;4.75;;
62997;SDS011;55949;52.590;7.330;2022-07-18T00:31:02;9.88;;;4.72;;
62997;SDS011;55949;52.590;7.330;2022-07-18T00:32:04;9.85;;;5.60;;
62997;SDS011;55949;52.590;7.330;2022-07-18T00:33:06;10.05;;;4.85;;
62997;SDS011;55949;52.590;7.330;2022-07-18T00:34:07;9.57;;;4.68;;
62997;SDS011;55949;52.590;7.330;2022-07-18T00:35:08;7.28;;;4.40;;
62997;SDS011;55949;52.590;7.330;2022-07-18T00:36:10;9.48;;;5.13;;
62997;SDS011;55949;52.590;7.330;2022-07-18T00:37:11;9.35;;;4.93;;
62997;SDS011;55949;52.590;7.330;2022-07-18T00:38:11;9.90;;;4.97;;
62997;SDS011;55949;52.590;7.330;2022-07-18T00:39:12;8.02;;;4.72;;
62997;SDS011;55949;52.590;7.330;2022-07-18T00:40:13;9.73;;;4.95;;
62997;SDS011;55949;52.590;7.330;2022-07-18T00:41:14;8.00;;;5.05;;
62997;SDS011;55949;52.590;7.330;2022-07-18T00:42:15;7.70;;;4.38;;
62997;SDS011;55949;52.590;7.330;2022-07-18T00:43:16;10.05;;;4.75;;
62997;SDS011;55949;52.590;7.330;2022-07-18T00:44:18;8.75;;;4.80;;
62997;SDS011;55949;52.590;7.330;2022-07-18T00:45:20;7.28;;;4.72;;
62997;SDS011;55949;52.590;7.330;2022-07-18T00:46:24;7.80;;;4.95;;
62997;SDS011;55949;52.590;7.330;2022-07-18T00:47:26;7.20;;;4.57;;
62997;SDS011;55949;52.590;7.330;2022-07-18T00:48:27;6.47;;;4.35;;
62997;SDS011;55949;52.590;7.330;2022-07-18T00:49:28;7.55;;;4.70;;
62997;SDS011;55949;52.590;7.330;2022-07-18T00:50:29;8.70;;;4.50;;
62997;SDS011;55949;52.590;7.330;2022-07-18T00:51:30;7.88;;;4.20;;
62997;SDS011;55949;52.590;7.330;2022-07-18T00:52:33;6.82;;;4.00;;
62997;SDS011;55949;52.590;7.330;2022-07-18T00:53:35;10.32;;;4.50;;
62997;SDS011;55949;52.590;7.330;2022-07-18T00:54:35;6.70;;;3.60;;
62997;SDS011;55949;52.590;7.330;2022-07-18T00:55:37;5.70;;;3.95;;
62997;SDS011;55949;52.590;7.330;2022-07-18T00:56:41;5.95;;;3.70;;
62997;SDS011;55949;52.590;7.330;2022-07-18T00:57:42;7.28;;;3.72;;
62997;SDS011;55949;52.590;7.330;2022-07-18T00:58:43;6.53;;;4.00;;
62997;SDS011;55949;52.590;7.330;2022-07-18T00:59:44;7.28;;;3.92;;
62997;SDS011;55949;52.590;7.330;2022-07-18T01:01:05;6.40;;;3.65;;
62997;SDS011;55949;52.590;7.330;2022-07-18T01:02:24;7.57;;;4.20;;
62997;SDS011;55949;52.590;7.330;2022-07-18T01:03:26;8.55;;;3.88;;
62997;SDS011;55949;52.590;7.330;2022-07-18T01:04:27;7.38;;;4.10;;
62997;SDS011;55949;52.590;7.330;2022-07-18T01:05:28;6.97;;;3.95;;
62997;SDS011;55949;52.590;7.330;2022-07-18T01:06:29;7.85;;;4.00;;
62997;SDS011;55949;52.590;7.330;2022-07-18T01:07:30;8.18;;;4.07;;
62997;SDS011;55949;52.590;7.330;2022-07-18T01:08:30;9.25;;;4.35;;
62997;SDS011;55949;52.590;7.330;2022-07-18T01:09:32;8.20;;;4.45;;
62997;SDS011;55949;52.590;7.330;2022-07-18T01:10:33;8.07;;;3.88;;
62997;SDS011;55949;52.590;7.330;2022-07-18T01:11:34;6.40;;;4.00;;
62997;SDS011;55949;52.590;7.330;2022-07-18T01:12:35;7.50;;;4.65;;
62997;SDS011;55949;52.590;7.330;2022-07-18T01:13:37;6.20;;;3.45;;
62997;SDS011;55949;52.590;7.330;2022-07-18T01:14:38;6.55;;;4.53;;
62997;SDS011;55949;52.590;7.330;2022-07-18T01:15:39;6.63;;;3.85;;
62997;SDS011;55949;52.590;7.330;2022-07-18T01:16:39;8.63;;;4.15;;
62997;SDS011;55949;52.590;7.330;2022-07-18T01:17:40;6.90;;;4.07;;
62997;SDS011;55949;52.590;7.330;2022-07-18T01:18:45;8.00;;;4.80;;
62997;SDS011;55949;52.590;7.330;2022-07-18T01:19:50;8.40;;;4.88;;
62997;SDS011;55949;52.590;7.330;2022-07-18T01:20:50;8.63;;;5.15;;
62997;SDS011;55949;52.590;7.330;2022-07-18T01:21:51;8.65;;;4.85;;
62997;SDS011;55949;52.590;7.330;2022-07-18T01:22:52;11.95;;;5.25;;
62997;SDS011;55949;52.590;7.330;2022-07-18T01:23:53;9.23;;;5.63;;
62997;SDS011;55949;52.590;7.330;2022-07-18T01:24:53;8.52;;;5.07;;
62997;SDS011;55949;52.590;7.330;2022-07-18T01:25:54;8.68;;;4.63;;
62997;SDS011;55949;52.590;7.330;2022-07-18T01:26:55;9.90;;;4.90;;
62997;SDS011;55949;52.590;7.330;2022-07-18T01:27:56;8.18;;;4.40;;
62997;SDS011;55949;52.590;7.330;2022-07-18T01:28:57;8.20;;;4.85;;
62997;SDS011;55949;52.590;7.330;2022-07-18T01:29:57;8.15;;;4.38;;
62997;SDS011;55949;52.590;7.330;2022-07-18T01:30:58;7.05;;;4.45;;
62997;SDS011;55949;52.590;7.330;2022-07-18T01:32:08;11.20;;;4.78;;
62997;SDS011;55949;52.590;7.330;2022-07-18T01:33:10;6.93;;;4.55;;
62997;SDS011;55949;52.590;7.330;2022-07-18T01:34:10;6.32;;;4.20;;
62997;SDS011;55949;52.590;7.330;2022-07-18T01:35:11;7.22;;;3.95;;
62997;SDS011;55949;52.590;7.330;2022-07-18T01:36:12;5.85;;;3.40;;
62997;SDS011;55949;52.590;7.330;2022-07-18T01:37:13;7.18;;;3.60;;
62997;SDS011;55949;52.590;7.330;2022-07-18T01:38:15;8.25;;;4.60;;
62997;SDS011;55949;52.590;7.330;2022-07-18T01:39:17;7.35;;;4.03;;
62997;SDS011;55949;52.590;7.330;2022-07-18T01:40:18;9.23;;;4.60;;
62997;SDS011;55949;52.590;7.330;2022-07-18T01:41:19;8.82;;;4.40;;
62997;SDS011;55949;52.590;7.330;2022-07-18T01:42:20;6.13;;;3.85;;
62997;SDS011;55949;52.590;7.330;2022-07-18T01:43:21;9.63;;;4.68;;
62997;SDS011;55949;52.590;7.330;2022-07-18T01:44:23;6.50;;;4.10;;
62997;SDS011;55949;52.590;7.330;2022-07-18T01:45:24;8.52;;;4.30;;
62997;SDS011;55949;52.590;7.330;2022-07-18T01:46:25;8.27;;;4.35;;
62997;SDS011;55949;52.590;7.330;2022-07-18T01:47:25;7.30;;;4.57;;
62997;SDS011;55949;52.590;7.330;2022-07-18T01:48:26;6.65;;;4.07;;
62997;SDS011;55949;52.590;7.330;2022-07-18T01:49:27;9.05;;;4.68;;
62997;SDS011;55949;52.590;7.330;2022-07-18T01:50:30;6.38;;;4.38;;
62997;SDS011;55949;52.590;7.330;2022-07-18T01:51:30;9.13;;;4.70;;
62997;SDS011;55949;52.590;7.330;2022-07-18T01:52:31;9.90;;;4.95;;
62997;SDS011;55949;52.590;7.330;2022-07-18T01:53:32;6.95;;;5.05;;
62997;SDS011;55949;52.590;7.330;2022-07-18T01:54:33;9.20;;;5.60;;
62997;SDS011;55949;52.590;7.330;2022-07-18T01:55:35;6.28;;;4.40;;
62997;SDS011;55949;52.590;7.330;2022-07-18T01:56:36;7.65;;;4.38;;
62997;SDS011;55949;52.590;7.330;2022-07-18T01:57:36;6.60;;;4.75;;
62997;SDS011;55949;52.590;7.330;2022-07-18T01:58:38;8.52;;;4.93;;
62997;SDS011;55949;52.590;7.330;2022-07-18T01:59:38;8.30;;;5.10;;
62997;SDS011;55949;52.590;7.330;2022-07-18T02:00:39;8.38;;;5.10;;
62997;SDS011;55949;52.590;7.330;2022-07-18T02:01:40;7.93;;;4.50;;
62997;SDS011;55949;52.590;7.330;2022-07-18T02:02:41;8.15;;;4.70;;
62997;SDS011;55949;52.590;7.330;2022-07-18T02:03:42;8.38;;;5.07;;
62997;SDS011;55949;52.590;7.330;2022-07-18T02:04:42;8.20;;;5.15;;
62997;SDS011;55949;52.590;7.330;2022-07-18T02:06:02;11.60;;;5.80;;
62997;SDS011;55949;52.590;7.330;2022-07-18T02:07:03;8.07;;;5.28;;
62997;SDS011;55949;52.590;7.330;2022-07-18T02:08:04;9.40;;;5.20;;
62997;SDS011;55949;52.590;7.330;2022-07-18T02:09:05;8.70;;;5.40;;
62997;SDS011;55949;52.590;7.330;2022-07-18T02:10:07;8.55;;;5.07;;
62997;SDS011;55949;52.590;7.330;2022-07-18T02:11:09;9.70;;;5.20;;
62997;SDS011;55949;52.590;7.330;2022-07-18T02:12:10;8.65;;;5.28;;
62997;SDS011;55949;52.590;7.330;2022-07-18T02:13:11;8.88;;;5.07;;
62997;SDS011;55949;52.590;7.330;2022-07-18T02:14:12;10.82;;;5.25;;
62997;SDS011;55949;52.590;7.330;2022-07-18T02:15:13;10.00;;;4.90;;
62997;SDS011;55949;52.590;7.330;2022-07-18T02:16:14;7.20;;;4.88;;
62997;SDS011;55949;52.590;7.330;2022-07-18T02:17:15;6.95;;;4.70;;
62997;SDS011;55949;52.590;7.330;2022-07-18T02:18:16;5.93;;;4.10;;
62997;SDS011;55949;52.590;7.330;2022-07-18T02:19:17;6.38;;;3.92;;
62997;SDS011;55949;52.590;7.330;2022-07-18T02:20:17;7.65;;;4.53;;
62997;SDS011;55949;52.590;7.330;2022-07-18T02:21:18;7.72;;;4.57;;
62997;SDS011;55949;52.590;7.330;2022-07-18T02:22:19;9.98;;;5.07;;
62997;SDS011;55949;52.590;7.330;2022-07-18T02:23:20;6.93;;;4.72;;
62997;SDS011;55949;52.590;7.330;2022-07-18T02:24:20;9.05;;;5.55;;
62997;SDS011;55949;52.590;7.330;2022-07-18T02:25:21;10.63;;;5.90;;
62997;SDS011;55949;52.590;7.330;2022-07-18T02:26:22;10.85;;;5.90;;
62997;SDS011;55949;52.590;7.330;2022-07-18T02:27:22;9.82;;;6.20;;
62997;SDS011;55949;52.590;7.330;2022-07-18T02:28:23;9.77;;;6.38;;
62997;SDS011;55949;52.590;7.330;2022-07-18T02:29:24;9.98;;;5.78;;
62997;SDS011;55949;52.590;7.330;2022-07-18T02:30:25;10.18;;;6.32;;
62997;SDS011;55949;52.590;7.330;2022-07-18T02:31:25;12.77;;;6.32;;
62997;SDS011;55949;52.590;7.330;2022-07-18T02:32:26;9.90;;;6.57;;
62997;SDS011;55949;52.590;7.330;2022-07-18T02:33:27;11.80;;;6.03;;
62997;SDS011;55949;52.590;7.330;2022-07-18T02:34:28;8.52;;;6.13;;
62997;SDS011;55949;52.590;7.330;2022-07-18T02:35:29;15.00;;;6.82;;
62997;SDS011;55949;52.590;7.330;2022-07-18T02:36:29;10.85;;;5.95;;
62997;SDS011;55949;52.590;7.330;2022-07-18T02:37:30;11.05;;;6.63;;
62997;SDS011;55949;52.590;7.330;2022-07-18T02:38:31;10.30;;;6.25;;
62997;SDS011;55949;52.590;7.330;2022-07-18T02:39:32;11.02;;;6.18;;
62997;SDS011;55949;52.590;7.330;2022-07-18T02:40:33;11.10;;;5.75;;
62997;SDS011;55949;52.590;7.330;2022-07-18T02:41:34;10.07;;;6.25;;
62997;SDS011;55949;52.590;7.330;2022-07-18T02:42:35;12.38;;;6.13;;
62997;SDS011;55949;52.590;7.330;2022-07-18T02:43:35;11.35;;;5.95;;
62997;SDS011;55949;52.590;7.330;2022-07-18T02:44:36;9.65;;;5.65;;
62997;SDS011;55949;52.590;7.330;2022-07-18T02:45:37;9.98;;;5.38;;
62997;SDS011;55949;52.590;7.330;2022-07-18T02:46:38;10.40;;;5.50;;
62997;SDS011;55949;52.590;7.330;2022-07-18T02:47:39;9.48;;;4.78;;
62997;SDS011;55949;52.590;7.330;2022-07-18T02:48:40;8.65;;;5.28;;
62997;SDS011;55949;52.590;7.330;2022-07-18T02:49:40;9.27;;;5.10;;
62997;SDS011;55949;52.590;7.330;2022-07-18T02:50:41;8.65;;;5.47;;
62997;SDS011;55949;52.590;7.330;2022-07-18T02:51:42;9.98;;;5.00;;
62997;SDS011;55949;52.590;7.330;2022-07-18T02:52:43;8.15;;;5.18;;
62997;SDS011;55949;52.590;7.330;2022-07-18T02:53:44;9.60;;;5.50;;
62997;SDS011;55949;52.590;7.330;2022-07-18T02:54:45;8.93;;;4.72;;
62997;SDS011;55949;52.590;7.330;2022-07-18T02:55:46;7.60;;;4.90;;
62997;SDS011;55949;52.590;7.330;2022-07-18T02:56:46;7.32;;;5.03;;
62997;SDS011;55949;52.590;7.330;2022-07-18T02:57:47;6.88;;;4.53;;
62997;SDS011;55949;52.590;7.330;2022-07-18T02:58:48;9.20;;;4.60;;
62997;SDS011;55949;52.590;7.330;2022-07-18T02:59:49;9.23;;;4.72;;
62997;SDS011;55949;52.590;7.330;2022-07-18T03:00:49;6.85;;;4.55;;
62997;SDS011;55949;52.590;7.330;2022-07-18T03:01:50;9.73;;;5.05;;
62997;SDS011;55949;52.590;7.330;2022-07-18T03:02:51;8.88;;;5.20;;
62997;SDS011;55949;52.590;7.330;2022-07-18T03:03:52;8.93;;;4.85;;
62997;SDS011;55949;52.590;7.330;2022-07-18T03:04:53;9.13;;;5.35;;
62997;SDS011;55949;52.590;7.330;2022-07-18T03:05:53;9.10;;;5.40;;
62997;SDS011;55949;52.590;7.330;2022-07-18T03:06:54;7.15;;;4.30;;
62997;SDS011;55949;52.590;7.330;2022-07-18T03:07:55;9.25;;;4.55;;
62997;SDS011;55949;52.590;7.330;2022-07-18T03:08:56;6.90;;;4.80;;
62997;SDS011;55949;52.590;7.330;2022-07-18T03:09:57;6.93;;;4.13;;
62997;SDS011;55949;52.590;7.330;2022-07-18T03:10:57;9.32;;;5.63;;
62997;SDS011;55949;52.590;7.330;2022-07-18T03:11:58;8.50;;;4.88;;
62997;SDS011;55949;52.590;7.330;2022-07-18T03:12:59;7.20;;;5.30;;
62997;SDS011;55949;52.590;7.330;2022-07-18T03:14:00;8.40;;;4.70;;
62997;SDS011;55949;52.590;7.330;2022-07-18T03:15:01;8.23;;;4.78;;
62997;SDS011;55949;52.590;7.330;2022-07-18T03:16:01;7.50;;;4.72;;
62997;SDS011;55949;52.590;7.330;2022-07-18T03:17:02;7.93;;;4.57;;
62997;SDS011;55949;52.590;7.330;2022-07-18T03:18:03;6.45;;;4.40;;
62997;SDS011;55949;52.590;7.330;2022-07-18T03:19:04;8.65;;;4.70;;
62997;SDS011;55949;52.590;7.330;2022-07-18T03:20:05;7.15;;;4.93;;
62997;SDS011;55949;52.590;7.330;2022-07-18T03:21:06;8.65;;;5.07;;
62997;SDS011;55949;52.590;7.330;2022-07-18T03:22:07;8.95;;;5.10;;
62997;SDS011;55949;52.590;7.330;2022-07-18T03:23:08;11.10;;;5.15;;
62997;SDS011;55949;52.590;7.330;2022-07-18T03:24:09;10.15;;;5.03;;
62997;SDS011;55949;52.590;7.330;2022-07-18T03:25:10;8.02;;;4.82;;
62997;SDS011;55949;52.590;7.330;2022-07-18T03:26:11;8.30;;;4.85;;
62997;SDS011;55949;52.590;7.330;2022-07-18T03:27:12;6.75;;;4.35;;
62997;SDS011;55949;52.590;7.330;2022-07-18T03:28:13;8.63;;;4.10;;
62997;SDS011;55949;52.590;7.330;2022-07-18T03:29:14;6.78;;;4.40;;
62997;SDS011;55949;52.590;7.330;2022-07-18T03:30:14;6.35;;;4.45;;
62997;SDS011;55949;52.590;7.330;2022-07-18T03:31:15;7.82;;;4.43;;
62997;SDS011;55949;52.590;7.330;2022-07-18T03:32:16;8.13;;;4.60;;
62997;SDS011;55949;52.590;7.330;2022-07-18T03:33:16;7.82;;;4.68;;
62997;SDS011;55949;52.590;7.330;2022-07-18T03:34:17;5.70;;;4.00;;
62997;SDS011;55949;52.590;7.330;2022-07-18T03:35:18;9.48;;;4.80;;
62997;SDS011;55949;52.590;7.330;2022-07-18T03:36:19;6.72;;;3.95;;
62997;SDS011;55949;52.590;7.330;2022-07-18T03:37:20;7.05;;;4.30;;
62997;SDS011;55949;52.590;7.330;2022-07-18T03:38:21;6.72;;;3.92;;
62997;SDS011;55949;52.590;7.330;2022-07-18T03:39:22;7.50;;;4.07;;
62997;SDS011;55949;52.590;7.330;2022-07-18T03:40:22;7.70;;;4.32;;
62997;SDS011;55949;52.590;7.330;2022-07-18T03:41:23;7.50;;;4.35;;
62997;SDS011;55949;52.590;7.330;2022-07-18T03:42:24;6.88;;;4.45;;
62997;SDS011;55949;52.590;7.330;2022-07-18T03:43:25;7.82;;;4.40;;
62997;SDS011;55949;52.590;7.330;2022-07-18T03:44:25;7.57;;;4.18;;
62997;SDS011;55949;52.590;7.330;2022-07-18T03:45:26;8.65;;;4.88;;
62997;SDS011;55949;52.590;7.330;2022-07-18T03:46:27;7.20;;;4.35;;
62997;SDS011;55949;52.590;7.330;2022-07-18T03:47:27;9.15;;;4.68;;
62997;SDS011;55949;52.590;7.330;2022-07-18T03:48:28;8.43;;;4.82;;
62997;SDS011;55949;52.590;7.330;2022-07-18T03:49:29;8.90;;;4.88;;
62997;SDS011;55949;52.590;7.330;2022-07-18T03:50:29;8.88;;;4.78;;
62997;SDS011;55949;52.590;7.330;2022-07-18T03:51:30;8.05;;;4.80;;
62997;SDS011;55949;52.590;7.330;2022-07-18T03:52:31;8.15;;;5.30;;
62997;SDS011;55949;52.590;7.330;2022-07-18T03:53:32;9.48;;;5.10;;
62997;SDS011;55949;52.590;7.330;2022-07-18T03:54:32;7.40;;;5.30;;
62997;SDS011;55949;52.590;7.330;2022-07-18T03:55:33;10.18;;;5.72;;
62997;SDS011;55949;52.590;7.330;2022-07-18T03:56:34;10.05;;;6.28;;
62997;SDS011;55949;52.590;7.330;2022-07-18T03:57:34;10.95;;;6.55;;
62997;SDS011;55949;52.590;7.330;2022-07-18T03:58:35;12.93;;;6.20;;
62997;SDS011;55949;52.590;7.330;2022-07-18T03:59:36;11.75;;;6.65;;
62997;SDS011;55949;52.590;7.330;2022-07-18T04:00:37;11.38;;;6.47;;
62997;SDS011;55949;52.590;7.330;2022-07-18T04:01:38;10.15;;;6.68;;
62997;SDS011;55949;52.590;7.330;2022-07-18T04:02:42;13.23;;;6.97;;
62997;SDS011;55949;52.590;7.330;2022-07-18T04:03:44;10.05;;;6.75;;
62997;SDS011;55949;52.590;7.330;2022-07-18T04:04:45;11.52;;;7.35;;
62997;SDS011;55949;52.590;7.330;2022-07-18T04:05:46;10.10;;;6.93;;
62997;SDS011;55949;52.590;7.330;2022-07-18T04:06:47;10.18;;;6.70;;
62997;SDS011;55949;52.590;7.330;2022-07-18T04:07:47;9.63;;;6.47;;
62997;SDS011;55949;52.590;7.330;2022-07-18T04:08:48;12.82;;;6.45;;
62997;SDS011;55949;52.590;7.330;2022-07-18T04:09:49;8.98;;;6.10;;
62997;SDS011;55949;52.590;7.330;2022-07-18T04:10:50;11.38;;;6.00;;
62997;SDS011;55949;52.590;7.330;2022-07-18T04:11:51;9.63;;;6.28;;
62997;SDS011;55949;52.590;7.330;2022-07-18T04:12:52;12.63;;;7.07;;
62997;SDS011;55949;52.590;7.330;2022-07-18T04:13:55;11.13;;;6.35;;
62997;SDS011;55949;52.590;7.330;2022-07-18T04:14:56;10.70;;;6.60;;
62997;SDS011;55949;52.590;7.330;2022-07-18T04:15:57;12.88;;;7.15;;
62997;SDS011;55949;52.590;7.330;2022-07-18T04:16:57;11.80;;;6.68;;
62997;SDS011;55949;52.590;7.330;2022-07-18T04:17:58;10.93;;;6.45;;
62997;SDS011;55949;52.590;7.330;2022-07-18T04:18:59;10.35;;;6.72;;
62997;SDS011;55949;52.590;7.330;2022-07-18T04:20:00;14.65;;;7.25;;
62997;SDS011;55949;52.590;7.330;2022-07-18T04:21:01;9.40;;;5.70;;
62997;SDS011;55949;52.590;7.330;2022-07-18T04:22:01;12.00;;;6.72;;
62997;SDS011;55949;52.590;7.330;2022-07-18T04:23:03;9.50;;;5.25;;
62997;SDS011;55949;52.590;7.330;2022-07-18T04:24:05;8.45;;;5.18;;
62997;SDS011;55949;52.590;7.330;2022-07-18T04:25:06;8.80;;;5.05;;
62997;SDS011;55949;52.590;7.330;2022-07-18T04:26:07;9.82;;;5.25;;
62997;SDS011;55949;52.590;7.330;2022-07-18T04:27:08;9.38;;;5.97;;
62997;SDS011;55949;52.590;7.330;2022-07-18T04:28:09;8.35;;;5.15;;
62997;SDS011;55949;52.590;7.330;2022-07-18T04:29:11;10.25;;;6.40;;
62997;SDS011;55949;52.590;7.330;2022-07-18T04:30:12;9.60;;;5.55;;
62997;SDS011;55949;52.590;7.330;2022-07-18T04:31:14;10.52;;;5.85;;
62997;SDS011;55949;52.590;7.330;2022-07-18T04:32:14;8.52;;;5.68;;
62997;SDS011;55949;52.590;7.330;2022-07-18T04:33:15;12.23;;;5.75;;
62997;SDS011;55949;52.590;7.330;2022-07-18T04:34:16;10.90;;;6.32;;
62997;SDS011;55949;52.590;7.330;2022-07-18T04:35:17;11.20;;;6.38;;
62997;SDS011;55949;52.590;7.330;2022-07-18T04:36:18;8.70;;;5.78;;
62997;SDS011;55949;52.590;7.330;2022-07-18T04:37:18;9.57;;;6.35;;
62997;SDS011;55949;52.590;7.330;2022-07-18T04:38:19;8.90;;;4.85;;
62997;SDS011;55949;52.590;7.330;2022-07-18T04:39:20;9.23;;;4.85;;
62997;SDS011;55949;52.590;7.330;2022-07-18T04:40:21;8.25;;;4.85;;
62997;SDS011;55949;52.590;7.330;2022-07-18T04:41:21;8.35;;;5.03;;
62997;SDS011;55949;52.590;7.330;2022-07-18T04:42:24;7.88;;;5.28;;
62997;SDS011;55949;52.590;7.330;2022-07-18T04:43:25;12.00;;;6.30;;
62997;SDS011;55949;52.590;7.330;2022-07-18T04:44:26;10.43;;;6.45;;
62997;SDS011;55949;52.590;7.330;2022-07-18T04:45:27;8.93;;;5.90;;
62997;SDS011;55949;52.590;7.330;2022-07-18T04:46:27;12.63;;;6.60;;
62997;SDS011;55949;52.590;7.330;2022-07-18T04:47:28;9.02;;;5.70;;
62997;SDS011;55949;52.590;7.330;2022-07-18T04:48:29;8.60;;;6.00;;
62997;SDS011;55949;52.590;7.330;2022-07-18T04:49:30;11.75;;;5.80;;
62997;SDS011;55949;52.590;7.330;2022-07-18T04:50:31;8.77;;;5.43;;
62997;SDS011;55949;52.590;7.330;2022-07-18T04:51:31;13.98;;;6.57;;
62997;SDS011;55949;52.590;7.330;2022-07-18T04:52:36;11.02;;;6.85;;
62997;SDS011;55949;52.590;7.330;2022-07-18T04:53:41;10.90;;;6.50;;
62997;SDS011;55949;52.590;7.330;2022-07-18T04:54:42;8.48;;;5.25;;
62997;SDS011;55949;52.590;7.330;2022-07-18T04:55:43;9.43;;;5.28;;
62997;SDS011;55949;52.590;7.330;2022-07-18T04:56:44;10.77;;;5.65;;
62997;SDS011;55949;52.590;7.330;2022-07-18T04:57:46;9.25;;;5.63;;
62997;SDS011;55949;52.590;7.330;2022-07-18T04:58:47;9.57;;;5.68;;
62997;SDS011;55949;52.590;7.330;2022-07-18T04:59:48;10.68;;;6.10;;
62997;SDS011;55949;52.590;7.330;2022-07-18T05:00:48;9.43;;;5.78;;
62997;SDS011;55949;52.590;7.330;2022-07-18T05:01:49;11.80;;;6.10;;
62997;SDS011;55949;52.590;7.330;2022-07-18T05:02:50;11.10;;;6.15;;
62997;SDS011;55949;52.590;7.330;2022-07-18T05:03:52;12.82;;;6.30;;
62997;SDS011;55949;52.590;7.330;2022-07-18T05:04:53;11.35;;;6.30;;
62997;SDS011;55949;52.590;7.330;2022-07-18T05:05:54;7.57;;;5.47;;
62997;SDS011;55949;52.590;7.330;2022-07-18T05:06:54;10.75;;;6.47;;
62997;SDS011;55949;52.590;7.330;2022-07-18T05:07:55;9.77;;;5.93;;
62997;SDS011;55949;52.590;7.330;2022-07-18T05:08:56;10.20;;;6.32;;
62997;SDS011;55949;52.590;7.330;2022-07-18T05:09:56;10.13;;;6.63;;
62997;SDS011;55949;52.590;7.330;2022-07-18T05:10:57;10.85;;;6.43;;
62997;SDS011;55949;52.590;7.330;2022-07-18T05:11:58;10.57;;;6.18;;
62997;SDS011;55949;52.590;7.330;2022-07-18T05:12:59;10.73;;;6.35;;
62997;SDS011;55949;52.590;7.330;2022-07-18T05:14:00;11.32;;;6.22;;
62997;SDS011;55949;52.590;7.330;2022-07-18T05:15:01;12.95;;;6.53;;
62997;SDS011;55949;52.590;7.330;2022-07-18T05:16:04;11.20;;;6.30;;
62997;SDS011;55949;52.590;7.330;2022-07-18T05:17:05;8.88;;;5.60;;
62997;SDS011;55949;52.590;7.330;2022-07-18T05:18:05;9.55;;;5.78;;
62997;SDS011;55949;52.590;7.330;2022-07-18T05:19:06;8.88;;;5.82;;
62997;SDS011;55949;52.590;7.330;2022-07-18T05:20:08;8.38;;;6.10;;
62997;SDS011;55949;52.590;7.330;2022-07-18T05:21:10;12.43;;;6.57;;
62997;SDS011;55949;52.590;7.330;2022-07-18T05:22:11;8.57;;;5.88;;
62997;SDS011;55949;52.590;7.330;2022-07-18T05:23:14;10.10;;;6.50;;
62997;SDS011;55949;52.590;7.330;2022-07-18T05:24:16;10.82;;;6.53;;
62997;SDS011;55949;52.590;7.330;2022-07-18T05:25:17;12.18;;;5.97;;
62997;SDS011;55949;52.590;7.330;2022-07-18T05:26:18;10.75;;;5.68;;
62997;SDS011;55949;52.590;7.330;2022-07-18T05:27:19;11.73;;;5.60;;
62997;SDS011;55949;52.590;7.330;2022-07-18T05:28:20;9.60;;;5.30;;
62997;SDS011;55949;52.590;7.330;2022-07-18T05:29:20;7.78;;;5.35;;
62997;SDS011;55949;52.590;7.330;2022-07-18T05:30:21;9.00;;;5.10;;
62997;SDS011;55949;52.590;7.330;2022-07-18T05:31:23;8.60;;;4.57;;
62997;SDS011;55949;52.590;7.330;2022-07-18T05:32:24;10.32;;;5.03;;
62997;SDS011;55949;52.590;7.330;2022-07-18T05:33:27;8.95;;;5.25;;
62997;SDS011;55949;52.590;7.330;2022-07-18T05:34:28;9.07;;;4.85;;
62997;SDS011;55949;52.590;7.330;2022-07-18T05:35:29;10.30;;;4.63;;
62997;SDS011;55949;52.590;7.330;2022-07-18T05:36:30;8.90;;;4.63;;
62997;SDS011;55949;52.590;7.330;2022-07-18T05:37:30;8.93;;;4.63;;
62997;SDS011;55949;52.590;7.330;2022-07-18T05:38:31;8.07;;;4.40;;
62997;SDS011;55949;52.590;7.330;2022-07-18T05:39:32;9.07;;;4.20;;
62997;SDS011;55949;52.590;7.330;2022-07-18T05:40:33;10.05;;;4.10;;
62997;SDS011;55949;52.590;7.330;2022-07-18T05:41:33;12.13;;;4.50;;
62997;SDS011;55949;52.590;7.330;2022-07-18T05:42:34;5.60;;;3.90;;
62997;SDS011;55949;52.590;7.330;2022-07-18T05:43:35;9.02;;;3.85;;
62997;SDS011;55949;52.590;7.330;2022-07-18T05:44:36;9.77;;;4.20;;
62997;SDS011;55949;52.590;7.330;2022-07-18T05:45:37;11.57;;;4.03;;
62997;SDS011;55949;52.590;7.330;2022-07-18T05:46:37;7.82;;;3.85;;
62997;SDS011;55949;52.590;7.330;2022-07-18T05:47:38;7.18;;;3.65;;
62997;SDS011;55949;52.590;7.330;2022-07-18T05:48:39;11.85;;;4.97;;
62997;SDS011;55949;52.590;7.330;2022-07-18T05:49:40;6.90;;;3.47;;
62997;SDS011;55949;52.590;7.330;2022-07-18T05:50:40;6.70;;;3.85;;
62997;SDS011;55949;52.590;7.330;2022-07-18T05:51:41;6.50;;;3.63;;
62997;SDS011;55949;52.590;7.330;2022-07-18T05:52:42;7.50;;;4.00;;
62997;SDS011;55949;52.590;7.330;2022-07-18T05:53:43;9.02;;;3.95;;
62997;SDS011;55949;52.590;7.330;2022-07-18T05:54:43;6.30;;;3.33;;
62997;SDS011;55949;52.590;7.330;2022-07-18T05:55:44;9.10;;;3.45;;
62997;SDS011;55949;52.590;7.330;2022-07-18T05:56:46;7.30;;;2.83;;
62997;SDS011;55949;52.590;7.330;2022-07-18T05:57:50;8.07;;;3.28;;
62997;SDS011;55949;52.590;7.330;2022-07-18T05:58:52;6.53;;;3.25;;
62997;SDS011;55949;52.590;7.330;2022-07-18T05:59:52;5.18;;;3.13;;
62997;SDS011;55949;52.590;7.330;2022-07-18T06:00:53;7.00;;;3.20;;
62997;SDS011;55949;52.590;7.330;2022-07-18T06:01:54;10.57;;;3.50;;
62997;SDS011;55949;52.590;7.330;2022-07-18T06:02:55;5.20;;;3.20;;
62997;SDS011;55949;52.590;7.330;2022-07-18T06:03:56;5.72;;;3.22;;
62997;SDS011;55949;52.590;7.330;2022-07-18T06:04:56;6.38;;;2.67;;
62997;SDS011;55949;52.590;7.330;2022-07-18T06:05:57;9.23;;;2.78;;
62997;SDS011;55949;52.590;7.330;2022-07-18T06:06:58;4.07;;;3.10;;
62997;SDS011;55949;52.590;7.330;2022-07-18T06:07:59;8.30;;;2.85;;